sensor_id;sensor_type;location;lat;lon;timestamp;temperature;humidity
8896;DHT22;4484;48.928;10.066;2024-02-26T00:02:10;3.90;99.90
8896;DHT22;4484;48.928;10.066;2024-02-26T00:04:36;3.90;99.90
8896;DHT22;4484;48.928;10.066;2024-02-26T00:07:03;3.90;99.90
8896;DHT22;4484;48.928;10.066;2024-02-26T00:09:30;3.90;99.90
8896;DHT22;4484;48.928;10.066;2024-02-26T00:11:57;3.90;99.90
8896;DHT22;4484;48.928;10.066;2024-02-26T00:14:26;3.80;99.90
8896;DHT22;4484;48.928;10.066;2024-02-26T00:16:52;3.80;99.90
8896;DHT22;4484;48.928;10.066;2024-02-26T00:19:19;3.80;99.90
8896;DHT22;4484;48.928;10.066;2024-02-26T00:21:46;3.80;99.90
8896;DHT22;4484;48.928;10.066;2024-02-26T00:24:13;3.80;99.90
8896;DHT22;4484;48.928;10.066;2024-02-26T00:26:40;3.80;99.90
8896;DHT22;4484;48.928;10.066;2024-02-26T00:29:07;3.80;99.90
8896;DHT22;4484;48.928;10.066;2024-02-26T00:31:34;3.80;99.90
8896;DHT22;4484;48.928;10.066;2024-02-26T00:34:01;3.80;99.90
8896;DHT22;4484;48.928;10.066;2024-02-26T00:36:28;3.80;99.90
8896;DHT22;4484;48.928;10.066;2024-02-26T00:38:55;3.80;99.90
8896;DHT22;4484;48.928;10.066;2024-02-26T00:41:22;3.80;99.90
8896;DHT22;4484;48.928;10.066;2024-02-26T00:43:50;3.80;99.90
8896;DHT22;4484;48.928;10.066;2024-02-26T00:46:16;3.80;99.90
8896;DHT22;4484;48.928;10.066;2024-02-26T00:48:43;3.90;99.90
8896;DHT22;4484;48.928;10.066;2024-02-26T00:51:11;3.90;99.90
8896;DHT22;4484;48.928;10.066;2024-02-26T00:53:38;3.90;99.90
8896;DHT22;4484;48.928;10.066;2024-02-26T00:56:05;3.90;99.90
8896;DHT22;4484;48.928;10.066;2024-02-26T00:58:32;3.90;99.90
8896;DHT22;4484;48.928;10.066;2024-02-26T01:00:59;4.00;99.90
8896;DHT22;4484;48.928;10.066;2024-02-26T01:03:26;4.00;99.90
8896;DHT22;4484;48.928;10.066;2024-02-26T01:05:53;4.00;99.90
8896;DHT22;4484;48.928;10.066;2024-02-26T01:08:24;4.00;99.90
8896;DHT22;4484;48.928;10.066;2024-02-26T01:10:51;4.00;99.90
8896;DHT22;4484;48.928;10.066;2024-02-26T01:13:18;4.00;99.90
8896;DHT22;4484;48.928;10.066;2024-02-26T01:15:44;3.90;99.90
8896;DHT22;4484;48.928;10.066;2024-02-26T01:18:11;4.00;99.90
8896;DHT22;4484;48.928;10.066;2024-02-26T01:20:39;4.00;99.90
8896;DHT22;4484;48.928;10.066;2024-02-26T01:23:06;4.00;99.90
8896;DHT22;4484;48.928;10.066;2024-02-26T01:25:32;4.00;99.90
8896;DHT22;4484;48.928;10.066;2024-02-26T01:27:59;4.00;99.90
8896;DHT22;4484;48.928;10.066;2024-02-26T01:30:26;4.00;99.90
8896;DHT22;4484;48.928;10.066;2024-02-26T01:32:53;4.00;99.90
8896;DHT22;4484;48.928;10.066;2024-02-26T01:35:20;3.90;99.90
8896;DHT22;4484;48.928;10.066;2024-02-26T01:37:47;3.90;99.90
8896;DHT22;4484;48.928;10.066;2024-02-26T01:40:14;3.90;99.90
8896;DHT22;4484;48.928;10.066;2024-02-26T01:42:46;3.90;99.90
8896;DHT22;4484;48.928;10.066;2024-02-26T01:45:17;3.90;99.90
8896;DHT22;4484;48.928;10.066;2024-02-26T01:47:53;3.80;99.90
8896;DHT22;4484;48.928;10.066;2024-02-26T01:50:21;3.80;99.90
8896;DHT22;4484;48.928;10.066;2024-02-26T01:52:50;3.80;99.90
8896;DHT22;4484;48.928;10.066;2024-02-26T01:55:22;3.80;99.90
8896;DHT22;4484;48.928;10.066;2024-02-26T01:57:50;3.80;99.90
8896;DHT22;4484;48.928;10.066;2024-02-26T02:00:20;3.70;99.90
8896;DHT22;4484;48.928;10.066;2024-02-26T02:02:51;3.70;99.90
8896;DHT22;4484;48.928;10.066;2024-02-26T02:05:20;3.70;99.90
8896;DHT22;4484;48.928;10.066;2024-02-26T02:07:47;3.70;99.90
8896;DHT22;4484;48.928;10.066;2024-02-26T02:10:16;3.70;99.90
8896;DHT22;4484;48.928;10.066;2024-02-26T02:12:45;3.70;99.90
8896;DHT22;4484;48.928;10.066;2024-02-26T02:15:12;3.70;99.90
8896;DHT22;4484;48.928;10.066;2024-02-26T02:17:39;3.70;99.90
8896;DHT22;4484;48.928;10.066;2024-02-26T02:20:16;3.70;99.90
8896;DHT22;4484;48.928;10.066;2024-02-26T02:22:47;3.60;99.90
8896;DHT22;4484;48.928;10.066;2024-02-26T02:25:14;3.60;99.90
8896;DHT22;4484;48.928;10.066;2024-02-26T02:27:42;3.60;99.90
8896;DHT22;4484;48.928;10.066;2024-02-26T02:30:10;3.60;99.90
8896;DHT22;4484;48.928;10.066;2024-02-26T02:32:39;3.60;99.90
8896;DHT22;4484;48.928;10.066;2024-02-26T02:35:07;3.60;99.90
8896;DHT22;4484;48.928;10.066;2024-02-26T02:37:34;3.60;99.90
8896;DHT22;4484;48.928;10.066;2024-02-26T02:40:01;3.60;99.90
8896;DHT22;4484;48.928;10.066;2024-02-26T02:42:28;3.60;99.90
8896;DHT22;4484;48.928;10.066;2024-02-26T02:44:55;3.60;99.90
8896;DHT22;4484;48.928;10.066;2024-02-26T02:47:22;3.60;99.90
8896;DHT22;4484;48.928;10.066;2024-02-26T02:49:49;3.60;99.90
8896;DHT22;4484;48.928;10.066;2024-02-26T02:52:15;3.50;99.90
8896;DHT22;4484;48.928;10.066;2024-02-26T02:54:42;3.50;99.90
8896;DHT22;4484;48.928;10.066;2024-02-26T02:57:09;3.50;99.90
8896;DHT22;4484;48.928;10.066;2024-02-26T02:59:37;3.50;99.90
8896;DHT22;4484;48.928;10.066;2024-02-26T03:02:05;3.50;99.90
8896;DHT22;4484;48.928;10.066;2024-02-26T03:04:33;3.50;99.90
8896;DHT22;4484;48.928;10.066;2024-02-26T03:07:00;3.50;99.90
8896;DHT22;4484;48.928;10.066;2024-02-26T03:09:27;3.50;99.90
8896;DHT22;4484;48.928;10.066;2024-02-26T03:11:54;3.50;99.90
8896;DHT22;4484;48.928;10.066;2024-02-26T03:14:21;3.50;99.90
8896;DHT22;4484;48.928;10.066;2024-02-26T03:16:48;3.50;99.90
8896;DHT22;4484;48.928;10.066;2024-02-26T03:19:15;3.50;99.90
8896;DHT22;4484;48.928;10.066;2024-02-26T03:21:45;3.50;99.90
8896;DHT22;4484;48.928;10.066;2024-02-26T03:24:12;3.50;99.90
8896;DHT22;4484;48.928;10.066;2024-02-26T03:26:39;3.50;99.90
8896;DHT22;4484;48.928;10.066;2024-02-26T03:29:06;3.50;99.90
8896;DHT22;4484;48.928;10.066;2024-02-26T03:31:32;3.50;99.90
8896;DHT22;4484;48.928;10.066;2024-02-26T03:33:59;3.50;99.90
8896;DHT22;4484;48.928;10.066;2024-02-26T03:36:26;3.50;99.90
8896;DHT22;4484;48.928;10.066;2024-02-26T03:38:53;3.60;99.90
8896;DHT22;4484;48.928;10.066;2024-02-26T03:41:20;3.60;99.90
8896;DHT22;4484;48.928;10.066;2024-02-26T03:43:47;3.60;99.90
8896;DHT22;4484;48.928;10.066;2024-02-26T03:46:14;3.60;99.90
8896;DHT22;4484;48.928;10.066;2024-02-26T03:48:41;3.60;99.90
8896;DHT22;4484;48.928;10.066;2024-02-26T03:51:09;3.60;99.90
8896;DHT22;4484;48.928;10.066;2024-02-26T03:53:37;3.60;99.90
8896;DHT22;4484;48.928;10.066;2024-02-26T03:56:05;3.50;99.90
8896;DHT22;4484;48.928;10.066;2024-02-26T03:58:32;3.60;99.90
8896;DHT22;4484;48.928;10.066;2024-02-26T04:01:00;3.60;99.90
8896;DHT22;4484;48.928;10.066;2024-02-26T04:03:27;3.60;99.90
8896;DHT22;4484;48.928;10.066;2024-02-26T04:05:54;3.60;99.90
8896;DHT22;4484;48.928;10.066;2024-02-26T04:08:21;3.60;99.90
8896;DHT22;4484;48.928;10.066;2024-02-26T04:10:48;3.60;99.90
8896;DHT22;4484;48.928;10.066;2024-02-26T04:13:15;3.60;99.90
8896;DHT22;4484;48.928;10.066;2024-02-26T04:15:42;3.60;99.90
8896;DHT22;4484;48.928;10.066;2024-02-26T04:18:08;3.70;99.90
8896;DHT22;4484;48.928;10.066;2024-02-26T04:20:35;3.70;99.90
8896;DHT22;4484;48.928;10.066;2024-02-26T04:23:03;3.70;99.90
8896;DHT22;4484;48.928;10.066;2024-02-26T04:25:30;3.70;99.90
8896;DHT22;4484;48.928;10.066;2024-02-26T04:27:57;3.70;99.90
8896;DHT22;4484;48.928;10.066;2024-02-26T04:30:24;3.70;99.90
8896;DHT22;4484;48.928;10.066;2024-02-26T04:32:51;3.70;99.90
8896;DHT22;4484;48.928;10.066;2024-02-26T04:35:18;3.70;99.90
8896;DHT22;4484;48.928;10.066;2024-02-26T04:37:45;3.70;99.90
8896;DHT22;4484;48.928;10.066;2024-02-26T04:40:12;3.70;99.90
8896;DHT22;4484;48.928;10.066;2024-02-26T04:42:39;3.70;99.90
8896;DHT22;4484;48.928;10.066;2024-02-26T04:45:06;3.70;99.90
8896;DHT22;4484;48.928;10.066;2024-02-26T04:47:35;3.70;99.90
8896;DHT22;4484;48.928;10.066;2024-02-26T04:50:02;3.70;99.90
8896;DHT22;4484;48.928;10.066;2024-02-26T04:52:29;3.70;99.90
8896;DHT22;4484;48.928;10.066;2024-02-26T04:54:56;3.70;99.90
8896;DHT22;4484;48.928;10.066;2024-02-26T04:57:22;3.70;99.90
8896;DHT22;4484;48.928;10.066;2024-02-26T04:59:49;3.70;99.90
8896;DHT22;4484;48.928;10.066;2024-02-26T05:02:16;3.70;99.90
8896;DHT22;4484;48.928;10.066;2024-02-26T05:04:43;3.70;99.90
8896;DHT22;4484;48.928;10.066;2024-02-26T05:07:10;3.60;99.90
8896;DHT22;4484;48.928;10.066;2024-02-26T05:09:40;3.60;99.90
8896;DHT22;4484;48.928;10.066;2024-02-26T05:12:08;3.60;99.90
8896;DHT22;4484;48.928;10.066;2024-02-26T05:14:35;3.60;99.90
8896;DHT22;4484;48.928;10.066;2024-02-26T05:17:02;3.60;99.90
8896;DHT22;4484;48.928;10.066;2024-02-26T05:19:29;3.60;99.90
8896;DHT22;4484;48.928;10.066;2024-02-26T05:21:56;3.60;99.90
8896;DHT22;4484;48.928;10.066;2024-02-26T05:24:23;3.60;99.90
8896;DHT22;4484;48.928;10.066;2024-02-26T05:26:50;3.60;99.90
8896;DHT22;4484;48.928;10.066;2024-02-26T05:29:17;3.60;99.90
8896;DHT22;4484;48.928;10.066;2024-02-26T05:31:44;3.60;99.90
8896;DHT22;4484;48.928;10.066;2024-02-26T05:34:11;3.50;99.90
8896;DHT22;4484;48.928;10.066;2024-02-26T05:36:37;3.50;99.90
8896;DHT22;4484;48.928;10.066;2024-02-26T05:39:05;3.50;99.90
8896;DHT22;4484;48.928;10.066;2024-02-26T05:41:32;3.50;99.90
8896;DHT22;4484;48.928;10.066;2024-02-26T05:43:59;3.50;99.90
8896;DHT22;4484;48.928;10.066;2024-02-26T05:46:26;3.50;99.90
8896;DHT22;4484;48.928;10.066;2024-02-26T05:48:54;3.50;99.90
8896;DHT22;4484;48.928;10.066;2024-02-26T05:51:21;3.50;99.90
8896;DHT22;4484;48.928;10.066;2024-02-26T05:53:48;3.50;99.90
8896;DHT22;4484;48.928;10.066;2024-02-26T05:56:22;3.50;99.90
8896;DHT22;4484;48.928;10.066;2024-02-26T05:58:49;3.50;99.90
8896;DHT22;4484;48.928;10.066;2024-02-26T06:01:16;3.50;99.90
8896;DHT22;4484;48.928;10.066;2024-02-26T06:03:44;3.50;99.90
8896;DHT22;4484;48.928;10.066;2024-02-26T06:06:11;3.50;99.90
8896;DHT22;4484;48.928;10.066;2024-02-26T06:08:39;3.50;99.90
8896;DHT22;4484;48.928;10.066;2024-02-26T06:11:07;3.50;99.90
8896;DHT22;4484;48.928;10.066;2024-02-26T06:13:36;3.50;99.90
8896;DHT22;4484;48.928;10.066;2024-02-26T06:16:03;3.50;99.90
8896;DHT22;4484;48.928;10.066;2024-02-26T06:18:31;3.50;99.90
8896;DHT22;4484;48.928;10.066;2024-02-26T06:20:58;3.50;99.90
8896;DHT22;4484;48.928;10.066;2024-02-26T06:23:26;3.50;99.90
8896;DHT22;4484;48.928;10.066;2024-02-26T06:25:54;3.50;99.90
8896;DHT22;4484;48.928;10.066;2024-02-26T06:28:21;3.50;99.90
8896;DHT22;4484;48.928;10.066;2024-02-26T06:30:48;3.50;99.90
8896;DHT22;4484;48.928;10.066;2024-02-26T06:33:14;3.50;99.90
8896;DHT22;4484;48.928;10.066;2024-02-26T06:35:41;3.50;99.90
8896;DHT22;4484;48.928;10.066;2024-02-26T06:38:09;3.50;99.90
8896;DHT22;4484;48.928;10.066;2024-02-26T06:40:36;3.60;99.90
8896;DHT22;4484;48.928;10.066;2024-02-26T06:43:03;3.60;99.90
8896;DHT22;4484;48.928;10.066;2024-02-26T06:45:30;3.60;99.90
8896;DHT22;4484;48.928;10.066;2024-02-26T06:47:57;3.70;99.90
8896;DHT22;4484;48.928;10.066;2024-02-26T06:50:24;3.70;99.90
8896;DHT22;4484;48.928;10.066;2024-02-26T06:52:51;3.70;99.90
8896;DHT22;4484;48.928;10.066;2024-02-26T06:55:18;3.80;99.90
8896;DHT22;4484;48.928;10.066;2024-02-26T06:57:45;3.80;99.90
8896;DHT22;4484;48.928;10.066;2024-02-26T07:00:12;3.80;99.90
8896;DHT22;4484;48.928;10.066;2024-02-26T07:02:44;3.80;99.90
8896;DHT22;4484;48.928;10.066;2024-02-26T07:05:11;3.90;99.90
8896;DHT22;4484;48.928;10.066;2024-02-26T07:07:39;3.90;99.90
8896;DHT22;4484;48.928;10.066;2024-02-26T07:10:07;4.00;99.90
8896;DHT22;4484;48.928;10.066;2024-02-26T07:12:33;4.00;99.90
8896;DHT22;4484;48.928;10.066;2024-02-26T07:15:00;4.10;99.90
8896;DHT22;4484;48.928;10.066;2024-02-26T07:17:29;4.10;99.90
8896;DHT22;4484;48.928;10.066;2024-02-26T07:19:56;4.10;99.90
8896;DHT22;4484;48.928;10.066;2024-02-26T07:22:23;4.20;99.90
8896;DHT22;4484;48.928;10.066;2024-02-26T07:24:51;4.20;99.90
8896;DHT22;4484;48.928;10.066;2024-02-26T07:27:21;4.20;99.90
8896;DHT22;4484;48.928;10.066;2024-02-26T07:29:48;4.30;99.90
8896;DHT22;4484;48.928;10.066;2024-02-26T07:32:15;4.40;99.90
8896;DHT22;4484;48.928;10.066;2024-02-26T07:34:42;4.40;99.90
8896;DHT22;4484;48.928;10.066;2024-02-26T07:37:11;4.50;99.90
8896;DHT22;4484;48.928;10.066;2024-02-26T07:39:38;4.60;99.90
8896;DHT22;4484;48.928;10.066;2024-02-26T07:42:05;4.70;99.90
8896;DHT22;4484;48.928;10.066;2024-02-26T07:44:33;4.80;99.90
8896;DHT22;4484;48.928;10.066;2024-02-26T07:47:00;4.80;99.90
8896;DHT22;4484;48.928;10.066;2024-02-26T07:49:27;4.90;99.90
8896;DHT22;4484;48.928;10.066;2024-02-26T07:51:54;5.00;99.90
8896;DHT22;4484;48.928;10.066;2024-02-26T07:54:21;5.10;99.90
8896;DHT22;4484;48.928;10.066;2024-02-26T07:56:48;5.10;99.90
8896;DHT22;4484;48.928;10.066;2024-02-26T07:59:15;5.10;99.90
8896;DHT22;4484;48.928;10.066;2024-02-26T08:01:42;5.10;99.90
8896;DHT22;4484;48.928;10.066;2024-02-26T08:04:12;5.10;99.90
8896;DHT22;4484;48.928;10.066;2024-02-26T08:06:38;5.20;99.90
8896;DHT22;4484;48.928;10.066;2024-02-26T08:09:05;5.20;99.90
8896;DHT22;4484;48.928;10.066;2024-02-26T08:11:33;5.20;99.90
8896;DHT22;4484;48.928;10.066;2024-02-26T08:14:00;5.30;99.90
8896;DHT22;4484;48.928;10.066;2024-02-26T08:16:27;5.40;99.90
8896;DHT22;4484;48.928;10.066;2024-02-26T08:18:54;5.40;99.90
8896;DHT22;4484;48.928;10.066;2024-02-26T08:21:21;5.50;99.90
8896;DHT22;4484;48.928;10.066;2024-02-26T08:23:48;5.60;99.90
8896;DHT22;4484;48.928;10.066;2024-02-26T08:26:15;5.70;99.90
8896;DHT22;4484;48.928;10.066;2024-02-26T08:28:42;5.80;99.90
8896;DHT22;4484;48.928;10.066;2024-02-26T08:31:09;5.90;99.90
8896;DHT22;4484;48.928;10.066;2024-02-26T08:33:36;6.00;99.90
8896;DHT22;4484;48.928;10.066;2024-02-26T08:36:05;6.00;99.90
8896;DHT22;4484;48.928;10.066;2024-02-26T08:38:31;6.10;99.90
8896;DHT22;4484;48.928;10.066;2024-02-26T08:41:02;6.10;99.90
8896;DHT22;4484;48.928;10.066;2024-02-26T08:43:29;6.20;99.90
8896;DHT22;4484;48.928;10.066;2024-02-26T08:45:57;6.20;99.90
8896;DHT22;4484;48.928;10.066;2024-02-26T08:48:24;6.30;99.90
8896;DHT22;4484;48.928;10.066;2024-02-26T08:50:51;6.30;99.90
8896;DHT22;4484;48.928;10.066;2024-02-26T08:53:18;6.40;99.90
8896;DHT22;4484;48.928;10.066;2024-02-26T08:55:57;6.50;99.90
8896;DHT22;4484;48.928;10.066;2024-02-26T08:58:24;6.60;99.90
8896;DHT22;4484;48.928;10.066;2024-02-26T09:00:51;6.60;99.90
8896;DHT22;4484;48.928;10.066;2024-02-26T09:03:17;6.70;99.90
8896;DHT22;4484;48.928;10.066;2024-02-26T09:05:44;6.70;99.90
8896;DHT22;4484;48.928;10.066;2024-02-26T09:08:11;6.80;99.90
8896;DHT22;4484;48.928;10.066;2024-02-26T09:10:39;6.90;99.90
8896;DHT22;4484;48.928;10.066;2024-02-26T09:13:06;7.00;99.90
8896;DHT22;4484;48.928;10.066;2024-02-26T09:15:33;7.10;99.90
8896;DHT22;4484;48.928;10.066;2024-02-26T09:18:00;7.30;99.90
8896;DHT22;4484;48.928;10.066;2024-02-26T09:20:27;7.40;99.90
8896;DHT22;4484;48.928;10.066;2024-02-26T09:22:54;7.50;99.90
8896;DHT22;4484;48.928;10.066;2024-02-26T09:25:21;7.50;99.90
8896;DHT22;4484;48.928;10.066;2024-02-26T09:27:48;7.50;99.90
8896;DHT22;4484;48.928;10.066;2024-02-26T09:30:15;7.60;99.90
8896;DHT22;4484;48.928;10.066;2024-02-26T09:32:46;7.70;99.90
8896;DHT22;4484;48.928;10.066;2024-02-26T09:35:13;7.80;99.90
8896;DHT22;4484;48.928;10.066;2024-02-26T09:37:40;7.90;99.90
8896;DHT22;4484;48.928;10.066;2024-02-26T09:40:10;8.00;99.90
8896;DHT22;4484;48.928;10.066;2024-02-26T09:42:43;8.00;99.90
8896;DHT22;4484;48.928;10.066;2024-02-26T09:45:17;8.10;99.90
8896;DHT22;4484;48.928;10.066;2024-02-26T09:47:44;8.10;99.90
8896;DHT22;4484;48.928;10.066;2024-02-26T09:50:12;8.20;99.90
8896;DHT22;4484;48.928;10.066;2024-02-26T09:52:41;8.30;99.90
8896;DHT22;4484;48.928;10.066;2024-02-26T09:55:09;8.40;99.90
8896;DHT22;4484;48.928;10.066;2024-02-26T09:57:42;8.50;99.90
8896;DHT22;4484;48.928;10.066;2024-02-26T10:00:15;8.50;99.90
8896;DHT22;4484;48.928;10.066;2024-02-26T10:02:48;8.40;99.90
8896;DHT22;4484;48.928;10.066;2024-02-26T10:05:19;8.40;99.90
8896;DHT22;4484;48.928;10.066;2024-02-26T10:07:46;8.50;99.90
8896;DHT22;4484;48.928;10.066;2024-02-26T10:10:17;8.60;99.90
8896;DHT22;4484;48.928;10.066;2024-02-26T10:12:44;8.80;99.90
8896;DHT22;4484;48.928;10.066;2024-02-26T10:15:11;9.10;99.90
8896;DHT22;4484;48.928;10.066;2024-02-26T10:17:39;9.40;99.90
8896;DHT22;4484;48.928;10.066;2024-02-26T10:20:16;9.70;99.90
8896;DHT22;4484;48.928;10.066;2024-02-26T10:22:49;10.20;99.90
8896;DHT22;4484;48.928;10.066;2024-02-26T10:25:17;10.50;99.90
8896;DHT22;4484;48.928;10.066;2024-02-26T10:27:46;10.70;99.90
8896;DHT22;4484;48.928;10.066;2024-02-26T10:30:16;11.00;99.90
8896;DHT22;4484;48.928;10.066;2024-02-26T10:32:48;11.20;99.90
8896;DHT22;4484;48.928;10.066;2024-02-26T10:35:16;11.30;99.90
8896;DHT22;4484;48.928;10.066;2024-02-26T10:37:48;11.30;99.90
8896;DHT22;4484;48.928;10.066;2024-02-26T10:40:16;11.40;99.90
8896;DHT22;4484;48.928;10.066;2024-02-26T10:42:43;11.70;99.90
8896;DHT22;4484;48.928;10.066;2024-02-26T10:45:12;12.10;99.90
8896;DHT22;4484;48.928;10.066;2024-02-26T10:47:40;12.40;99.90
8896;DHT22;4484;48.928;10.066;2024-02-26T10:50:09;12.40;99.90
8896;DHT22;4484;48.928;10.066;2024-02-26T10:52:37;12.80;99.90
8896;DHT22;4484;48.928;10.066;2024-02-26T10:55:05;13.30;99.90
8896;DHT22;4484;48.928;10.066;2024-02-26T10:57:38;13.70;99.90
8896;DHT22;4484;48.928;10.066;2024-02-26T11:00:07;14.60;99.90
8896;DHT22;4484;48.928;10.066;2024-02-26T11:02:38;15.20;99.90
8896;DHT22;4484;48.928;10.066;2024-02-26T11:05:06;15.90;99.90
8896;DHT22;4484;48.928;10.066;2024-02-26T11:07:36;16.70;99.90
8896;DHT22;4484;48.928;10.066;2024-02-26T11:10:05;17.20;99.90
8896;DHT22;4484;48.928;10.066;2024-02-26T11:12:35;17.60;99.90
8896;DHT22;4484;48.928;10.066;2024-02-26T11:15:04;17.80;99.90
8896;DHT22;4484;48.928;10.066;2024-02-26T11:17:32;18.00;99.90
8896;DHT22;4484;48.928;10.066;2024-02-26T11:20:01;17.90;99.90
8896;DHT22;4484;48.928;10.066;2024-02-26T11:22:30;17.80;99.90
8896;DHT22;4484;48.928;10.066;2024-02-26T11:24:58;17.50;99.70
8896;DHT22;4484;48.928;10.066;2024-02-26T11:27:31;17.20;99.60
8896;DHT22;4484;48.928;10.066;2024-02-26T11:30:01;16.90;99.90
8896;DHT22;4484;48.928;10.066;2024-02-26T11:32:30;16.70;99.90
8896;DHT22;4484;48.928;10.066;2024-02-26T11:35:00;16.50;99.90
8896;DHT22;4484;48.928;10.066;2024-02-26T11:37:28;16.10;99.70
8896;DHT22;4484;48.928;10.066;2024-02-26T11:39:55;15.90;99.70
8896;DHT22;4484;48.928;10.066;2024-02-26T11:42:25;15.50;99.90
8896;DHT22;4484;48.928;10.066;2024-02-26T11:44:52;15.10;99.80
8896;DHT22;4484;48.928;10.066;2024-02-26T11:47:21;14.60;99.40
8896;DHT22;4484;48.928;10.066;2024-02-26T11:49:49;14.40;99.90
8896;DHT22;4484;48.928;10.066;2024-02-26T11:52:16;14.20;99.80
8896;DHT22;4484;48.928;10.066;2024-02-26T11:54:51;14.10;99.90
8896;DHT22;4484;48.928;10.066;2024-02-26T11:57:21;14.00;99.40
8896;DHT22;4484;48.928;10.066;2024-02-26T11:59:49;13.80;98.60
8896;DHT22;4484;48.928;10.066;2024-02-26T12:02:47;13.40;96.80
8896;DHT22;4484;48.928;10.066;2024-02-26T12:05:17;13.10;96.90
8896;DHT22;4484;48.928;10.066;2024-02-26T12:10:17;12.60;98.60
8896;DHT22;4484;48.928;10.066;2024-02-26T12:12:47;12.50;98.80
8896;DHT22;4484;48.928;10.066;2024-02-26T12:15:15;12.40;99.60
8896;DHT22;4484;48.928;10.066;2024-02-26T12:17:48;12.40;99.90
8896;DHT22;4484;48.928;10.066;2024-02-26T12:20:17;12.50;99.90
8896;DHT22;4484;48.928;10.066;2024-02-26T12:22:45;12.50;99.90
8896;DHT22;4484;48.928;10.066;2024-02-26T12:25:15;12.50;99.90
8896;DHT22;4484;48.928;10.066;2024-02-26T12:27:42;12.50;99.90
8896;DHT22;4484;48.928;10.066;2024-02-26T12:30:09;12.50;99.90
8896;DHT22;4484;48.928;10.066;2024-02-26T12:32:37;12.40;99.90
8896;DHT22;4484;48.928;10.066;2024-02-26T12:35:05;12.30;99.90
8896;DHT22;4484;48.928;10.066;2024-02-26T12:37:33;12.20;99.90
8896;DHT22;4484;48.928;10.066;2024-02-26T12:39:59;12.20;99.90
8896;DHT22;4484;48.928;10.066;2024-02-26T12:42:26;12.10;99.90
8896;DHT22;4484;48.928;10.066;2024-02-26T12:44:54;12.10;99.90
8896;DHT22;4484;48.928;10.066;2024-02-26T12:47:20;12.00;99.90
8896;DHT22;4484;48.928;10.066;2024-02-26T12:49:48;11.90;99.90
8896;DHT22;4484;48.928;10.066;2024-02-26T12:52:16;11.90;99.90
8896;DHT22;4484;48.928;10.066;2024-02-26T12:54:44;11.70;99.90
8896;DHT22;4484;48.928;10.066;2024-02-26T12:57:13;11.60;99.90
8896;DHT22;4484;48.928;10.066;2024-02-26T12:59:40;11.40;99.90
8896;DHT22;4484;48.928;10.066;2024-02-26T13:02:07;11.30;99.90
8896;DHT22;4484;48.928;10.066;2024-02-26T13:04:34;11.20;99.90
8896;DHT22;4484;48.928;10.066;2024-02-26T13:07:04;11.10;99.90
8896;DHT22;4484;48.928;10.066;2024-02-26T13:09:35;11.10;99.90
8896;DHT22;4484;48.928;10.066;2024-02-26T13:12:06;10.90;99.90
8896;DHT22;4484;48.928;10.066;2024-02-26T13:14:34;10.80;99.90
8896;DHT22;4484;48.928;10.066;2024-02-26T13:17:01;10.80;99.90
8896;DHT22;4484;48.928;10.066;2024-02-26T13:19:29;10.70;99.90
8896;DHT22;4484;48.928;10.066;2024-02-26T13:21:56;10.70;99.90
8896;DHT22;4484;48.928;10.066;2024-02-26T13:24:29;10.60;99.90
8896;DHT22;4484;48.928;10.066;2024-02-26T13:26:58;10.60;99.90
8896;DHT22;4484;48.928;10.066;2024-02-26T13:29:25;10.60;99.90
8896;DHT22;4484;48.928;10.066;2024-02-26T13:31:58;10.60;99.90
8896;DHT22;4484;48.928;10.066;2024-02-26T13:34:25;10.60;99.90
8896;DHT22;4484;48.928;10.066;2024-02-26T13:36:54;10.50;99.90
8896;DHT22;4484;48.928;10.066;2024-02-26T13:39:25;10.50;99.90
8896;DHT22;4484;48.928;10.066;2024-02-26T13:41:53;10.50;99.90
8896;DHT22;4484;48.928;10.066;2024-02-26T13:44:21;10.50;99.90
8896;DHT22;4484;48.928;10.066;2024-02-26T13:46:48;10.60;99.90
8896;DHT22;4484;48.928;10.066;2024-02-26T13:49:16;10.60;99.90
8896;DHT22;4484;48.928;10.066;2024-02-26T13:51:43;10.50;99.90
8896;DHT22;4484;48.928;10.066;2024-02-26T13:54:10;10.50;99.90
8896;DHT22;4484;48.928;10.066;2024-02-26T13:56:37;10.50;99.90
8896;DHT22;4484;48.928;10.066;2024-02-26T13:59:04;10.40;99.90
8896;DHT22;4484;48.928;10.066;2024-02-26T14:01:31;10.40;99.90
8896;DHT22;4484;48.928;10.066;2024-02-26T14:04:00;10.40;99.90
8896;DHT22;4484;48.928;10.066;2024-02-26T14:06:29;10.40;99.90
8896;DHT22;4484;48.928;10.066;2024-02-26T14:08:58;10.40;99.90
8896;DHT22;4484;48.928;10.066;2024-02-26T14:11:25;10.40;99.90
8896;DHT22;4484;48.928;10.066;2024-02-26T14:13:52;10.30;99.90
8896;DHT22;4484;48.928;10.066;2024-02-26T14:16:19;10.30;99.90
8896;DHT22;4484;48.928;10.066;2024-02-26T14:18:47;10.30;99.90
8896;DHT22;4484;48.928;10.066;2024-02-26T14:21:14;10.30;99.90
8896;DHT22;4484;48.928;10.066;2024-02-26T14:23:41;10.30;99.90
8896;DHT22;4484;48.928;10.066;2024-02-26T14:26:11;10.40;99.90
8896;DHT22;4484;48.928;10.066;2024-02-26T14:28:38;10.40;99.90
8896;DHT22;4484;48.928;10.066;2024-02-26T14:31:05;10.40;99.90
8896;DHT22;4484;48.928;10.066;2024-02-26T14:33:33;10.40;99.90
8896;DHT22;4484;48.928;10.066;2024-02-26T14:36:01;10.50;99.90
8896;DHT22;4484;48.928;10.066;2024-02-26T14:38:28;10.50;99.90
8896;DHT22;4484;48.928;10.066;2024-02-26T14:40:55;10.50;99.90
8896;DHT22;4484;48.928;10.066;2024-02-26T14:43:22;10.50;99.90
8896;DHT22;4484;48.928;10.066;2024-02-26T14:45:49;10.50;99.90
8896;DHT22;4484;48.928;10.066;2024-02-26T14:48:16;10.60;99.90
8896;DHT22;4484;48.928;10.066;2024-02-26T14:50:43;10.60;99.90
8896;DHT22;4484;48.928;10.066;2024-02-26T14:53:10;10.70;99.90
8896;DHT22;4484;48.928;10.066;2024-02-26T14:55:36;10.70;99.90
8896;DHT22;4484;48.928;10.066;2024-02-26T14:58:07;10.80;99.90
8896;DHT22;4484;48.928;10.066;2024-02-26T15:00:36;10.80;99.90
8896;DHT22;4484;48.928;10.066;2024-02-26T15:03:03;10.80;99.90
8896;DHT22;4484;48.928;10.066;2024-02-26T15:05:30;10.80;99.90
8896;DHT22;4484;48.928;10.066;2024-02-26T15:07:57;10.70;99.90
8896;DHT22;4484;48.928;10.066;2024-02-26T15:10:25;10.70;99.90
8896;DHT22;4484;48.928;10.066;2024-02-26T15:12:52;10.60;99.90
8896;DHT22;4484;48.928;10.066;2024-02-26T15:15:21;10.60;99.90
8896;DHT22;4484;48.928;10.066;2024-02-26T15:17:49;10.50;99.90
8896;DHT22;4484;48.928;10.066;2024-02-26T15:20:16;10.50;99.90
8896;DHT22;4484;48.928;10.066;2024-02-26T15:22:43;10.40;99.90
8896;DHT22;4484;48.928;10.066;2024-02-26T15:25:10;10.40;99.90
8896;DHT22;4484;48.928;10.066;2024-02-26T15:27:41;10.40;99.90
8896;DHT22;4484;48.928;10.066;2024-02-26T15:30:09;10.30;99.90
8896;DHT22;4484;48.928;10.066;2024-02-26T15:32:36;10.30;99.90
8896;DHT22;4484;48.928;10.066;2024-02-26T15:35:03;10.30;99.90
8896;DHT22;4484;48.928;10.066;2024-02-26T15:37:30;10.20;99.90
8896;DHT22;4484;48.928;10.066;2024-02-26T15:39:57;10.20;99.90
8896;DHT22;4484;48.928;10.066;2024-02-26T15:42:24;10.20;99.90
8896;DHT22;4484;48.928;10.066;2024-02-26T15:44:52;10.10;99.90
8896;DHT22;4484;48.928;10.066;2024-02-26T15:47:19;10.00;99.90
8896;DHT22;4484;48.928;10.066;2024-02-26T15:49:45;10.00;99.90
8896;DHT22;4484;48.928;10.066;2024-02-26T15:52:13;9.90;99.90
8896;DHT22;4484;48.928;10.066;2024-02-26T15:54:40;9.90;99.90
8896;DHT22;4484;48.928;10.066;2024-02-26T15:57:07;9.80;99.90
8896;DHT22;4484;48.928;10.066;2024-02-26T15:59:37;9.70;99.90
8896;DHT22;4484;48.928;10.066;2024-02-26T16:02:04;9.70;99.90
8896;DHT22;4484;48.928;10.066;2024-02-26T16:04:31;9.60;99.90